Terminal Aerodrome Forecast
Issued by NWS Omaha/Valley, NE

Home | Current Version | Previous Version | Text Only | Print | Product List | Glossary On
Versions: 1 2 3 4 5 6 7 8 9 10 11 12 13 14 15 16 17 18 19 20 21 22 23 24 25 26 27 28 29 30 31 32 33 34 35 36
000
FTUS43 KOAX 171608 AAD
TAFLNK
TAF AMD
KLNK 171608Z 1716/1812 36008KT 6SM -RASN BR OVC035
      TEMPO 1716/1717 3SM -SN OVC025
     FM171700 36006KT P6SM SCT015 BKN035
     FM180000 00000KT P6SM BKN200=

USA.gov is the U.S. government's official web portal to all federal, state and local government web resources and services.